Willow Creek, California
Current Conditions -  °F | °C
As of 7:53 AM on Saturday 27 Dec 2014 (Local Time) from KACV Reporting Station
Clear Clear  
Wind Chill: 30°   Ceiling: Unl
Heat Index: 35°   Visibility: 10mi
Dew Point: 32°   Wind: 6mph
Humidity: 89%   Direction: 90°E
Pressure: 30.31"   Gusts: NA
Location:  40.94°N, 123.63°W
Report Text: KACV 271553Z AUTO 09005KT 10SM CLR 02/00 A3031 RMK AO2 SLP273 T00170000
Loading
Personal Weather Stations






























Interactive Weather Map New forecast layout! Learn more

10-Day Weather Forecast

Advertisements
Track Severe Weather on mobile